Weather observations for the past three days for
Rockland, Knox County Regional Airport
Metric (Imperial)
Date Time (edt) Wind (kph) Vis. (km) Weather Sky Cond. Temperature (ºC) Relative Humidity Wind Chill (°C) Heat Index (°C) Pressure Precipitation (cm)
Air Dwpt 6 hour altimeter (cm) sea level (mb) 1 hr 3 hr 6 hr
Max. Min.
06 04:56 SW 17 G 28 16.09 Overcast OVC110 11.1 9.4 89% 75.77 1010.1
06 03:56 SW 22 G 33 16.09 Fair CLR 11.7 9.4 86% 75.72 1009.4
06 02:56 SW 22 G 33 16.09 Fair CLR 11.1 8.9 86% 75.69 1009.2
06 01:56 SW 17 G 31 16.09 Fair CLR 11.1 8.3 12.8 10.6 83% 75.72 1009.4
06 00:56 SW 22 G 31 16.09 Overcast FEW060 SCT100 OVC110 10.6 8.3 86% 75.72 1009.3
05 23:56 SW 17 G 28 16.09 Overcast OVC100 11.1 8.3 83% 75.72 1009.6
05 22:56 S 13 16.09 Mostly Cloudy BKN110 11.1 8.3 83% 75.72 1009.4
05 21:56 SW 19 16.09 Partly Cloudy SCT090 12.8 8.9 77% 75.72 1009.5
05 20:56 S 11 16.09 Fair CLR 12.8 8.3 74% 75.67 1008.8
05 19:56 W 28 G 57 16.09 Fair CLR 12.8 8.9 13.9 11.7 77% 75.62 1008.2
05 18:56 SW 28 G 41 16.09 Fair CLR 12.2 8.3 77% 75.46 1006.0
05 17:56 SW 28 G 37 16.09 Fair CLR 12.8 8.9 77% 0 0.0
05 16:56 SW 22 G 39 14.48 Fair CLR 13.3 9.4 77% 75.46 1006.0
05 15:56 SW 31 G 48 16.09 Fair CLR 13.3 9.4 77% 75.51 1006.7
05 14:56 SW 24 G 41 16.09 Fair CLR 13.3 9.4 77% 75.54 1007.2
05 13:56 S 22 G 37 16.09 Fair CLR 13.3 9.4 14.4 12.2 77% 75.59 1007.9
05 12:56 S 19 G 33 16.09 Fair CLR 13.9 9.4 74% 75.62 1008.2
05 11:56 SW 19 G 37 16.09 Fair CLR 12.8 8.9 77% 75.72 1009.4
05 10:56 S 22 G 37 16.09 Fair CLR 12.8 9.4 80% 75.69 1009.1
05 09:56 S 17 16.09 Fair CLR 12.8 8.9 77% 75.72 1009.3
05 08:56 S 19 16.09 Fair CLR 12.2 8.3 77% 75.72 1009.3
05 07:56 S 15 G 26 16.09 Fair CLR 11.7 7.8 11.7 8.9 77% 75.72 1009.5
05 06:56 Vrbl 11 16.09 Fair CLR 10.6 7.2 80% 75.72 1009.3
05 05:56 SW 11 16.09 Fair CLR 9.4 6.7 83% 8 75.69 1009.2
05 04:56 SW 9 16.09 Fair CLR 9.4 6.7 83% 8 75.69 1009.2
05 03:56 SW 17 16.09 Fair CLR 10 6.1 77% 8 75.69 1009.2
05 02:56 SW 20 G 30 16.09 Fair CLR 10.6 6.1 74% 75.67 1008.9
05 01:56 SW 26 G 43 16.09 Fair CLR 10.6 6.1 12.2 9.4 74% 75.67 1008.7
05 00:56 SW 24 16.09 Fair CLR 11.7 6.1 69% 75.64 1008.5
04 23:56 SW 20 G 35 16.09 Fair CLR 11.7 6.1 69% 75.62 1008.2
04 21:56 SW 15 16.09 Fair CLR 11.1 5.6 69% 75.59 1007.9
04 20:56 SW 9 16.09 Fair CLR 10 5.6 74% 9 75.59 1007.7
04 19:56 SW 11 16.09 Fair CLR 10 5.6 17.2 10 74% 9 75.54 1007.1
04 18:56 SW 13 16.09 A Few Clouds FEW090 11.7 5.6 66% 75.46 1006.1
04 17:56 S 15 16.09 Fair CLR 13.9 6.1 60% 75.44 1005.9
04 16:56 Vrbl 11 16.09 Fair CLR 17.2 6.7 50% 75.44 1005.8
04 15:56 SW 9 16.09 Overcast OVC075 15.6 5.6 52% 75.41 1005.5
04 14:56 W 17 16.09 Overcast OVC065 13.9 4.4 53% 75.46 1005.9
04 13:56 W 31 G 37 16.09 Mostly Cloudy BKN075 13.9 3.9 15.6 5.6 51% 75.46 1006.0
04 12:56 SW 19 G 35 16.09 Fair CLR 13.3 5 57% 75.41 1005.5
04 11:56 Calm 16.09 A Few Clouds FEW110 12.2 5.6 64% 0 0.0
04 10:56 SW 15 16.09 Fair CLR 12.8 4.4 57% 75.54 1006.9
04 09:56 SW 13 16.09 Fair CLR 11.7 3.3 57% 75.57 1007.5
04 08:56 W 17 16.09 A Few Clouds FEW070 10 1.7 57% 8 75.62 1008.2
04 07:56 W 7 16.09 Overcast OVC080 5.6 0 5.6 -0.6 68% 4 75.64 1008.5
04 06:56 W 7 16.09 Overcast OVC085 4.4 -0.6 70% 3 75.64 1008.4
04 05:56 W 6 16.09 Fair CLR 0 -1.1 92% 75.62 1008.2
04 04:56 W 6 16.09 Fair CLR 0 -1.1 92% 0 0.0
04 03:56 W 9 16.09 Fair CLR 1.7 -0.6 85% -1 75.59 1007.8
04 02:56 W 9 16.09 Fair CLR 2.2 -0.6 82% -0 75.57 1007.5
04 01:56 W 13 16.09 Fair CLR 2.2 -1.1 8.9 2.2 79% -1 75.57 1007.4
04 00:56 W 20 16.09 Fair CLR 5 -1.1 65% 1 75.54 1006.9
03 23:56 Calm 16.09 Fair CLR 5.6 -1.1 62% 0 0.0
03 22:56 W 17 16.09 Fair CLR 5.6 -1.7 60% 3 75.46 1006.0
03 21:56 W 11 16.09 Fair CLR 5.6 -1.7 60% 3 75.44 1005.7
03 20:56 NW 13 16.09 Fair CLR 7.8 -2.2 50% 6 75.39 1004.9
03 19:56 W 15 16.09 Partly Cloudy SCT075 8.9 -0.6 10.6 6.1 52% 7 75.29 1003.7
03 18:56 Calm 16.09 Fair CLR 9.4 3.3 66% 75.21 1002.7
03 17:56 Vrbl 9 16.09 Partly Cloudy SCT032 10 4.4 68% 9 75.18 1002.2
03 16:56 NW 19 G 31 16.09 Mostly Cloudy SCT029 BKN095 9.4 4.4 71% 7 75.18 1002.3 0.05
03 15:56 N 19 G 39 16.09 Overcast BKN018 OVC025 7.8 5 83% 5 75.21 1002.8
03 14:56 NW 11 16.09 Light Rain OVC014 6.7 5.6 93% 5 0 0.0 0.05
03 13:56 Vrbl 9 16.09 Light Rain BKN015 OVC022 6.1 5 7.2 5.6 93% 4 75.26 1003.5 0.08 0.74
03 12:56 Calm 16.09 Light Rain BKN015 OVC025 5.6 4.4 92% 0 0.0 0.08
03 11:56 Vrbl 11 16.09 Light Rain OVC015 6.1 5 93% 4 75.26 1003.4 0.1
03 10:56 Vrbl 9 16.09 Light Rain OVC010 6.7 6.1 96% 5 75.31 1004.0 0.18 0.48
03 09:56 Vrbl 6 16.09 Light Rain OVC005 6.7 6.7 100% 75.34 1004.4 0.18
03 08:56 N 9 16.09 Light Rain OVC003 6.7 6.7 100% 5 75.39 1004.9 0.13
03 07:56 N 17 16.09 Light Rain OVC003 6.7 6.7 6.7 6.7 100% 4 75.44 1005.7 0.18 0.69
03 06:56 Calm 16.09 Light Rain OVC003 6.7 6.7 100% 75.49 1006.3 0.13
03 05:56 NE 9 14.48 Light Rain OVC003 6.7 6.7 100% 5 75.51 1006.6 0.08
Date Time (edt) Wind (kph) Vis. (km) Weather Sky Cond. Air Dwpt Max. Min. Relative Humidity Wind Chill (°C) Heat Index (°C) altimeter (cm) sea level (mb) 1 hr 3 hr 6 hr
6 hour
Temperature (ºC) Pressure Precipitation (cm)